Time;durP1;ratioP1;P1;durP2;ratioP2;P2;SDS_P1;SDS_P2;PMS_P1;PMS_P2;Temp;Humidity;BMP_temperature;BMP_pressure;BME280_temperature;BME280_humidity;BME280_pressure;Samples;Min_cycle;Max_cycle;Signal;HPM_P1;HPM_P2
2022/11/16 00:02:15;;;;;;;92.70;53.70;;;;;;;5.44;96.30;99575.42;102929;1283;22692;-58
2022/11/16 00:04:47;;;;;;;88.30;48.50;;;;;;;5.44;96.35;99575.38;102811;1303;24300;-57
2022/11/16 00:07:19;;;;;;;89.90;50.50;;;;;;;5.46;96.34;99573.52;102727;1307;22545;-58
2022/11/16 00:09:52;;;;;;;89.30;52.00;;;;;;;5.46;96.21;99565.63;102891;1299;25371;-59
2022/11/16 00:12:24;;;;;;;92.10;51.10;;;;;;;5.46;96.14;99561.05;103057;1277;22468;-59
2022/11/16 00:14:55;;;;;;;96.00;52.70;;;;;;;5.47;96.25;99555.48;103239;1295;25290;-59
2022/11/16 00:17:28;;;;;;;93.90;51.50;;;;;;;5.48;96.34;99553.30;103234;1296;22940;-57
2022/11/16 00:20:00;;;;;;;91.60;52.40;;;;;;;5.49;96.25;99552.08;103276;1302;22542;-58
2022/11/16 00:22:31;;;;;;;102.30;56.50;;;;;;;5.49;96.24;99555.27;103331;1276;24156;-58
2022/11/16 00:25:03;;;;;;;110.60;58.70;;;;;;;5.48;96.63;99550.86;103431;1278;25692;-58
2022/11/16 00:27:35;;;;;;;98.70;54.30;;;;;;;5.48;96.82;99546.54;103435;1278;22469;-58
2022/11/16 00:30:09;;;;;;;109.90;58.60;;;;;;;5.48;96.78;99542.42;103287;1271;22598;-59
2022/11/16 00:32:41;;;;;;;101.80;55.80;;;;;;;5.47;96.93;99534.98;103393;1278;25313;-58
2022/11/16 00:35:13;;;;;;;94.50;52.10;;;;;;;5.46;97.06;99534.58;103519;1280;22464;-57
2022/11/16 00:37:45;;;;;;;102.10;55.70;;;;;;;5.48;96.99;99529.43;103280;1291;22466;-58
2022/11/16 00:40:17;;;;;;;92.80;54.30;;;;;;;5.49;96.79;99530.73;103370;1271;22481;-57
2022/11/16 00:42:49;;;;;;;101.20;53.60;;;;;;;5.50;96.77;99533.56;103452;1278;25298;-58
2022/11/16 00:45:21;;;;;;;98.10;53.90;;;;;;;5.52;96.76;99534.83;103390;1271;22480;-57
2022/11/16 00:47:53;;;;;;;94.50;53.10;;;;;;;5.52;96.76;99532.04;103434;1278;22975;-58
2022/11/16 00:50:26;;;;;;;95.60;53.80;;;;;;;5.52;96.82;99533.59;103518;1278;25480;-57
2022/11/16 00:52:58;;;;;;;97.40;56.70;;;;;;;5.54;96.96;99533.69;103275;1275;25445;-59
2022/11/16 00:55:30;;;;;;;95.50;51.80;;;;;;;5.54;96.90;99534.15;103664;1279;24263;-58
2022/11/16 00:58:02;;;;;;;98.00;54.30;;;;;;;5.55;96.87;99534.90;103459;1301;22501;-59
2022/11/16 01:00:34;;;;;;;93.90;54.90;;;;;;;5.56;96.88;99541.90;103325;1278;22473;-58
2022/11/16 01:03:06;;;;;;;94.70;54.10;;;;;;;5.56;96.90;99540.40;103280;1303;25492;-60
2022/11/16 01:05:39;;;;;;;98.80;56.20;;;;;;;5.56;97.05;99534.70;103267;1279;24402;-58
2022/11/16 01:08:11;;;;;;;100.00;55.00;;;;;;;5.55;97.02;99530.63;103283;1278;23090;-58
2022/11/16 01:10:43;;;;;;;99.60;54.60;;;;;;;5.55;97.14;99530.77;103750;1277;25390;-58
2022/11/16 01:13:16;;;;;;;102.70;57.00;;;;;;;5.57;97.12;99526.98;104090;1278;22498;-58
2022/11/16 01:15:51;;;;;;;95.20;52.60;;;;;;;5.59;97.23;99525.16;103381;1278;22478;-58
2022/11/16 01:18:23;;;;;;;100.00;57.40;;;;;;;5.61;97.44;99525.52;103403;1278;24248;-58
2022/11/16 01:20:55;;;;;;;102.90;53.20;;;;;;;5.63;97.64;99518.10;104504;1279;25029;-58
2022/11/16 01:23:27;;;;;;;104.30;54.70;;;;;;;5.65;98.05;99511.92;105295;1294;22466;-60
2022/11/16 01:26:00;;;;;;;98.20;53.90;;;;;;;5.67;98.43;99506.57;107177;1301;22201;-59
2022/11/16 01:28:32;;;;;;;86.90;47.60;;;;;;;5.70;98.71;99502.90;105990;1286;25257;-61
2022/11/16 01:31:04;;;;;;;88.10;49.80;;;;;;;5.73;98.89;99502.20;103461;1278;22462;-60
2022/11/16 01:33:37;;;;;;;89.20;48.30;;;;;;;5.77;98.90;99500.56;103617;1271;22577;-59
2022/11/16 01:36:15;;;;;;;97.10;49.70;;;;;;;5.80;99.00;99503.40;103530;1278;24280;-58
2022/11/16 01:38:47;;;;;;;78.00;41.80;;;;;;;5.83;99.18;99507.48;103324;1278;22938;-59
2022/11/16 01:41:22;;;;;;;81.20;44.40;;;;;;;5.86;99.42;99507.30;103212;1274;24225;-58
2022/11/16 01:44:00;;;;;;;84.70;44.60;;;;;;;5.87;99.38;99504.92;103198;1303;22454;-59
2022/11/16 01:46:34;;;;;;;89.20;46.50;;;;;;;5.88;99.47;99500.06;103356;1279;22542;-59
2022/11/16 01:49:10;;;;;;;89.60;47.40;;;;;;;5.89;99.47;99499.24;103359;1278;22479;-58
2022/11/16 01:51:47;;;;;;;96.50;49.40;;;;;;;5.91;99.61;99498.44;103309;1278;22467;-58
2022/11/16 01:54:20;;;;;;;86.70;47.10;;;;;;;5.92;99.49;99496.04;103271;1279;22942;-58
2022/11/16 01:56:55;;;;;;;96.80;49.30;;;;;;;5.93;99.49;99492.80;103274;1276;22482;-58
2022/11/16 01:59:28;;;;;;;87.90;46.20;;;;;;;5.95;99.63;99491.49;103709;1279;22557;-59
2022/11/16 02:02:00;;;;;;;91.50;51.90;;;;;;;5.98;99.67;99487.48;103506;1278;25450;-58
2022/11/16 02:04:33;;;;;;;90.40;51.40;;;;;;;5.99;99.48;99483.79;103456;1284;25394;-58
2022/11/16 02:07:12;;;;;;;95.50;51.80;;;;;;;6.02;99.54;99484.40;103366;1278;24375;-58
2022/11/16 02:10:09;;;;;;;93.40;51.30;;;;;;;6.02;99.77;99486.02;103401;1276;22603;-60
2022/11/16 02:13:01;;;;;;;93.70;49.20;;;;;;;6.04;99.59;99483.34;103560;1278;24389;-59
2022/11/16 02:15:40;;;;;;;87.20;47.70;;;;;;;6.04;99.69;99477.61;103361;1277;23159;-59
2022/11/16 02:18:22;;;;;;;94.60;49.00;;;;;;;6.04;99.65;99475.65;103197;1279;25315;-60
2022/11/16 02:21:04;;;;;;;91.10;50.70;;;;;;;6.05;99.64;99470.92;103266;1271;22609;-59
2022/11/16 02:23:59;;;;;;;96.80;53.00;;;;;;;6.07;99.61;99469.81;103309;1271;24004;-62
2022/11/16 02:27:16;;;;;;;92.60;49.40;;;;;;;6.07;99.79;99467.98;103332;1278;22476;-59
2022/11/16 02:29:51;;;;;;;99.20;52.60;;;;;;;6.09;99.70;99465.78;103282;1271;22471;-58
2022/11/16 02:32:30;;;;;;;97.30;50.70;;;;;;;6.10;99.75;99463.44;103557;1280;22482;-58
2022/11/16 02:35:07;;;;;;;98.50;52.00;;;;;;;6.10;99.78;99462.39;103613;1274;22473;-59
2022/11/16 02:37:44;;;;;;;92.00;52.60;;;;;;;6.10;99.77;99458.91;103285;1302;22792;-59
2022/11/16 02:40:21;;;;;;;85.30;46.70;;;;;;;6.10;99.70;99458.82;103296;1303;22469;-59
2022/11/16 02:42:56;;;;;;;86.50;47.30;;;;;;;6.11;99.68;99462.20;103175;1278;25466;-59
2022/11/16 02:45:34;;;;;;;86.70;48.00;;;;;;;6.10;99.81;99466.02;103499;1277;22463;-60
2022/11/16 02:48:11;;;;;;;88.20;47.40;;;;;;;6.10;99.83;99468.73;103230;1273;25197;-58
2022/11/16 02:50:44;;;;;;;84.80;47.20;;;;;;;6.09;99.88;99465.34;103231;1277;25298;-58
2022/11/16 02:53:16;;;;;;;80.70;43.80;;;;;;;6.11;99.86;99461.71;103206;1289;22554;-59
2022/11/16 02:55:48;;;;;;;78.00;43.70;;;;;;;6.12;99.90;99457.65;103330;1297;25208;-58
2022/11/16 02:58:23;;;;;;;84.50;44.90;;;;;;;6.13;99.87;99460.25;103342;1301;25621;-59
2022/11/16 03:01:03;;;;;;;75.60;41.30;;;;;;;6.15;99.84;99462.24;103274;1271;25368;-58
2022/11/16 03:03:39;;;;;;;84.40;43.40;;;;;;;6.13;99.90;99463.36;103336;1271;26465;-58
2022/11/16 03:06:16;;;;;;;80.80;45.30;;;;;;;6.10;99.83;99469.35;103305;1275;22487;-58
2022/11/16 03:08:55;;;;;;;85.70;46.30;;;;;;;6.08;99.89;99468.04;103456;1284;24959;-58
2022/11/16 03:14:19;;;;;;;94.20;49.00;;;;;;;6.06;99.86;99467.48;103329;1278;22479;-57
2022/11/16 03:16:54;;;;;;;88.50;45.80;;;;;;;6.04;99.87;99472.27;103333;1301;25492;-58
2022/11/16 03:19:30;;;;;;;96.70;49.60;;;;;;;6.01;99.78;99475.63;103395;1289;22498;-58
2022/11/16 03:22:07;;;;;;;100.50;50.00;;;;;;;6.00;99.79;99468.58;103180;1278;22584;-57
2022/11/16 03:24:40;;;;;;;95.10;52.00;;;;;;;5.99;99.91;99464.98;103289;1278;22493;-58
2022/11/16 03:27:18;;;;;;;96.60;50.10;;;;;;;5.97;99.88;99464.34;103328;1279;22464;-59
2022/11/16 03:30:01;;;;;;;96.80;50.80;;;;;;;5.94;99.83;99460.05;103261;1277;24415;-58
2022/11/16 03:32:41;;;;;;;95.10;47.00;;;;;;;5.91;99.86;99458.54;103485;1278;22807;-59
2022/11/16 03:35:19;;;;;;;89.10;44.10;;;;;;;5.87;99.79;99460.21;103306;1279;22593;-59
2022/11/16 03:37:53;;;;;;;94.80;47.70;;;;;;;5.82;99.73;99462.73;103443;1301;22476;-59
2022/11/16 03:40:29;;;;;;;93.60;42.90;;;;;;;5.79;99.77;99463.01;103315;1279;24677;-59
2022/11/16 03:43:03;;;;;;;93.40;45.00;;;;;;;5.76;99.74;99463.23;103362;1296;22471;-58
2022/11/16 03:45:36;;;;;;;92.90;43.30;;;;;;;5.72;99.76;99462.38;103331;1279;22521;-58
2022/11/16 03:48:08;;;;;;;99.70;45.80;;;;;;;5.70;99.75;99459.55;103447;1272;22687;-59
2022/11/16 03:50:40;;;;;;;96.10;47.00;;;;;;;5.66;99.76;99455.07;103448;1296;22479;-59
2022/11/16 03:53:12;;;;;;;103.00;47.80;;;;;;;5.64;99.70;99453.72;103274;1294;23230;-59
2022/11/16 03:55:44;;;;;;;97.70;46.00;;;;;;;5.63;99.76;99452.48;103342;1294;26071;-60
2022/11/16 03:58:17;;;;;;;92.70;45.90;;;;;;;5.63;99.81;99447.26;103308;1303;22480;-59
2022/11/16 04:00:48;;;;;;;91.80;45.10;;;;;;;5.65;99.88;99444.48;103351;1278;22468;-59
2022/11/16 04:03:20;;;;;;;90.60;41.30;;;;;;;5.67;99.85;99435.08;103344;1302;25461;-58
2022/11/16 04:25:47;;;;;;;71.00;33.70;;;;;;;5.49;99.41;99429.90;103428;1303;22459;-58
2022/11/16 04:28:21;;;;;;;71.40;34.80;;;;;;;5.45;99.37;99429.56;103355;1303;24232;-58
2022/11/16 04:39:24;;;;;;;75.20;35.50;;;;;;;5.36;99.45;99415.31;103145;1275;22476;-58
2022/11/16 04:47:33;;;;;;;69.00;32.90;;;;;;;5.29;99.36;99425.34;103352;1278;22468;-57
2022/11/16 04:50:06;;;;;;;70.00;34.20;;;;;;;5.26;99.54;99427.34;103429;1301;23854;-60
2022/11/16 04:52:37;;;;;;;84.60;41.00;;;;;;;5.23;99.38;99423.09;103381;1279;22481;-60
2022/11/16 04:55:10;;;;;;;76.70;37.50;;;;;;;5.22;99.62;99425.50;103444;1303;22634;-58
2022/11/16 04:57:42;;;;;;;79.80;38.30;;;;;;;5.23;99.70;99421.08;103421;1279;22490;-59
2022/11/16 05:00:17;;;;;;;76.30;34.90;;;;;;;5.26;99.80;99421.67;103342;1279;25194;-58
2022/11/16 05:02:49;;;;;;;86.70;39.30;;;;;;;5.26;99.67;99419.83;103421;1271;22504;-62
2022/11/16 05:05:21;;;;;;;77.80;36.10;;;;;;;5.28;99.80;99423.65;103362;1278;22461;-59
2022/11/16 05:07:53;;;;;;;81.50;36.70;;;;;;;5.29;99.79;99421.88;103389;1278;22493;-59
2022/11/16 05:10:24;;;;;;;76.70;33.40;;;;;;;5.30;99.85;99417.56;103341;1279;22472;-59
2022/11/16 05:12:57;;;;;;;74.90;35.30;;;;;;;5.29;99.69;99411.88;103402;1278;25423;-58
2022/11/16 05:15:29;;;;;;;73.00;33.30;;;;;;;5.30;99.84;99408.62;103174;1271;22474;-58
2022/11/16 05:18:01;;;;;;;70.00;33.50;;;;;;;5.32;99.92;99406.91;103409;1271;22513;-61
2022/11/16 05:26:14;;;;;;;70.80;30.60;;;;;;;5.32;99.84;99405.04;103303;1278;22484;-61
2022/11/16 05:28:46;;;;;;;72.10;32.20;;;;;;;5.33;99.91;99404.77;103203;1278;22494;-61
2022/11/16 05:31:19;;;;;;;69.20;33.30;;;;;;;5.31;99.88;99400.03;103306;1278;22472;-61
2022/11/16 05:33:50;;;;;;;71.40;32.90;;;;;;;5.29;99.90;99394.26;103477;1278;22497;-61
2022/11/16 05:36:22;;;;;;;67.20;30.50;;;;;;;5.28;99.82;99394.04;103464;1278;22612;-59
2022/11/16 05:38:53;;;;;;;59.10;28.50;;;;;;;5.27;99.96;99397.36;103489;1271;22478;-58
2022/11/16 05:41:25;;;;;;;66.10;29.70;;;;;;;5.27;99.96;99396.02;103428;1278;24318;-57
2022/11/16 05:43:57;;;;;;;69.60;30.50;;;;;;;5.30;100.00;99396.73;103403;1302;25435;-57
2022/11/16 05:46:28;;;;;;;62.60;28.30;;;;;;;5.30;100.00;99391.27;103441;1280;25622;-62
2022/11/16 05:49:00;;;;;;;72.50;30.50;;;;;;;5.33;100.00;99396.77;103238;1279;24204;-58
2022/11/16 05:51:32;;;;;;;67.80;29.50;;;;;;;5.34;100.00;99395.00;103363;1279;22490;-58
2022/11/16 05:54:05;;;;;;;73.00;30.00;;;;;;;5.36;100.00;99395.54;103677;1278;22473;-59
2022/11/16 05:56:37;;;;;;;70.20;30.30;;;;;;;5.38;100.00;99392.34;104181;1289;24067;-59
2022/11/16 05:59:09;;;;;;;61.80;28.30;;;;;;;5.40;100.00;99387.80;103553;1272;25280;-58
2022/11/16 06:01:41;;;;;;;63.40;27.90;;;;;;;5.40;99.94;99393.79;103267;1278;25443;-58
2022/11/16 06:04:13;;;;;;;63.90;25.90;;;;;;;5.39;99.93;99390.89;103290;1278;25063;-59
2022/11/16 06:06:45;;;;;;;60.80;26.80;;;;;;;5.41;100.00;99391.34;103544;1294;22476;-59
2022/11/16 06:09:16;;;;;;;68.30;28.50;;;;;;;5.42;100.00;99386.39;103418;1279;22549;-58
2022/11/16 06:11:48;;;;;;;63.50;25.30;;;;;;;5.43;100.00;99381.34;103351;1271;25462;-57
2022/11/16 06:14:19;;;;;;;68.20;26.80;;;;;;;5.46;100.00;99374.50;103499;1271;22471;-58
2022/11/16 06:16:51;;;;;;;66.90;26.30;;;;;;;5.47;100.00;99370.02;103199;1303;24242;-57
2022/11/16 06:19:25;;;;;;;62.80;26.60;;;;;;;5.48;100.00;99367.92;103630;1278;22603;-58
2022/11/16 06:21:57;;;;;;;69.90;26.80;;;;;;;5.49;100.00;99371.36;103333;1271;22483;-57
2022/11/16 06:24:28;;;;;;;66.10;26.90;;;;;;;5.49;100.00;99369.70;103515;1301;22591;-58
2022/11/16 06:27:00;;;;;;;66.00;26.90;;;;;;;5.49;100.00;99367.39;103198;1278;24254;-57
2022/11/16 06:29:31;;;;;;;71.50;28.30;;;;;;;5.51;100.00;99369.36;103098;1302;25269;-57
2022/11/16 06:32:02;;;;;;;67.80;24.40;;;;;;;5.52;100.00;99368.75;103797;1302;25330;-59
2022/11/16 06:34:34;;;;;;;72.60;25.40;;;;;;;5.52;100.00;99365.02;103376;1275;24081;-58
2022/11/16 06:37:06;;;;;;;73.50;28.30;;;;;;;5.52;100.00;99363.75;103377;1285;22475;-60
2022/11/16 06:39:37;;;;;;;72.70;27.70;;;;;;;5.54;100.00;99363.45;103434;1278;22522;-58
2022/11/16 06:42:09;;;;;;;76.00;32.30;;;;;;;5.55;100.00;99360.40;103297;1278;24994;-56
2022/11/16 06:44:41;;;;;;;102.40;46.00;;;;;;;5.55;100.00;99353.26;103283;1278;23967;-58
2022/11/16 06:47:12;;;;;;;97.40;43.20;;;;;;;5.57;100.00;99349.17;103333;1277;24290;-57
2022/11/16 06:49:44;;;;;;;125.80;64.70;;;;;;;5.58;100.00;99347.14;103391;1288;25367;-57
2022/11/16 06:52:16;;;;;;;128.80;73.80;;;;;;;5.60;100.00;99348.75;103317;1278;25358;-58
2022/11/16 06:54:47;;;;;;;111.60;53.80;;;;;;;5.63;100.00;99350.77;103382;1283;22517;-58
2022/11/16 06:57:19;;;;;;;80.80;35.80;;;;;;;5.63;100.00;99352.89;103289;1278;22980;-59
2022/11/16 06:59:50;;;;;;;81.90;33.40;;;;;;;5.64;100.00;99357.82;103300;1271;22819;-56
2022/11/16 07:02:22;;;;;;;81.50;31.50;;;;;;;5.66;100.00;99356.39;103311;1278;25352;-59
2022/11/16 07:04:54;;;;;;;83.60;32.70;;;;;;;5.66;100.00;99358.45;103228;1302;22787;-59
2022/11/16 07:07:26;;;;;;;77.80;28.60;;;;;;;5.66;100.00;99356.85;103920;1278;22478;-58
2022/11/16 07:09:57;;;;;;;76.00;29.50;;;;;;;5.66;100.00;99353.83;103307;1278;22669;-56
2022/11/16 07:12:29;;;;;;;65.90;24.90;;;;;;;5.69;100.00;99353.03;103401;1278;22601;-58
2022/11/16 07:15:01;;;;;;;74.80;28.60;;;;;;;5.68;100.00;99355.44;103366;1299;22468;-57
2022/11/16 07:17:33;;;;;;;78.90;33.60;;;;;;;5.67;100.00;99360.76;103208;1278;23118;-58
2022/11/16 07:20:06;;;;;;;88.90;34.50;;;;;;;5.66;100.00;99364.85;103424;1303;22604;-57
2022/11/16 07:22:37;;;;;;;74.80;27.10;;;;;;;5.67;100.00;99363.37;103296;1284;25234;-58
2022/11/16 07:25:11;;;;;;;78.80;30.40;;;;;;;5.69;100.00;99360.92;103409;1278;22481;-57
2022/11/16 07:27:43;;;;;;;76.30;30.40;;;;;;;5.70;100.00;99362.13;103401;1271;25252;-58
2022/11/16 07:30:16;;;;;;;85.60;33.50;;;;;;;5.72;100.00;99360.41;103211;1278;22520;-57
2022/11/16 07:32:47;;;;;;;81.80;30.40;;;;;;;5.73;100.00;99362.46;103480;1271;25841;-57
2022/11/16 07:35:19;;;;;;;97.70;39.10;;;;;;;5.75;100.00;99358.22;103643;1282;25350;-56
2022/11/16 07:37:50;;;;;;;95.50;38.30;;;;;;;5.76;100.00;99362.73;103465;1278;24431;-57
2022/11/16 07:40:22;;;;;;;93.80;35.30;;;;;;;5.78;100.00;99366.54;103396;1293;22671;-58
2022/11/16 07:42:57;;;;;;;87.20;32.80;;;;;;;5.78;100.00;99366.44;103385;1303;25388;-58
2022/11/16 07:45:29;;;;;;;83.40;31.40;;;;;;;5.80;100.00;99360.03;103305;1292;25381;-59
2022/11/16 07:48:01;;;;;;;84.10;29.30;;;;;;;5.82;100.00;99357.88;103158;1277;22520;-58
2022/11/16 07:50:34;;;;;;;81.30;30.30;;;;;;;5.84;100.00;99361.45;103344;1278;25290;-58
2022/11/16 07:53:06;;;;;;;83.10;30.80;;;;;;;5.85;100.00;99363.37;103500;1294;25695;-58
2022/11/16 07:55:38;;;;;;;91.70;32.10;;;;;;;5.85;100.00;99361.45;103355;1301;26554;-57
2022/11/16 07:58:10;;;;;;;78.20;28.90;;;;;;;5.87;100.00;99364.47;103420;1273;23964;-59
2022/11/16 08:00:41;;;;;;;80.10;27.80;;;;;;;5.88;100.00;99363.30;103318;1302;22747;-58
2022/11/16 08:03:13;;;;;;;70.60;26.60;;;;;;;5.89;100.00;99363.52;103298;1301;22600;-58
2022/11/16 08:05:46;;;;;;;77.20;30.10;;;;;;;5.90;100.00;99360.00;103421;1271;23734;-55
2022/11/16 08:08:17;;;;;;;76.50;29.90;;;;;;;5.91;100.00;99364.27;103280;1271;25372;-58
2022/11/16 08:10:49;;;;;;;77.20;28.80;;;;;;;5.93;100.00;99363.61;103424;1279;24335;-57
2022/11/16 08:13:20;;;;;;;74.10;29.10;;;;;;;5.95;100.00;99366.47;103363;1277;22874;-57
2022/11/16 08:15:52;;;;;;;77.90;28.40;;;;;;;5.96;100.00;99364.42;103360;1278;22487;-59
2022/11/16 08:18:25;;;;;;;98.50;35.50;;;;;;;5.96;100.00;99368.61;103200;1288;23076;-58
2022/11/16 08:20:58;;;;;;;95.10;34.60;;;;;;;5.93;100.00;99369.95;103404;1279;22472;-58
2022/11/16 08:23:31;;;;;;;78.10;27.80;;;;;;;5.93;100.00;99373.83;103451;1271;25455;-59
2022/11/16 08:26:05;;;;;;;82.90;28.30;;;;;;;5.92;100.00;99378.17;103411;1282;22474;-57
2022/11/16 08:28:37;;;;;;;73.60;28.00;;;;;;;5.92;100.00;99373.75;103432;1282;26613;-59
2022/11/16 08:31:13;;;;;;;75.60;27.60;;;;;;;5.92;100.00;99373.45;103398;1271;25654;-57
2022/11/16 08:33:45;;;;;;;70.50;27.70;;;;;;;5.92;100.00;99365.55;103307;1271;22592;-58
2022/11/16 08:36:17;;;;;;;66.80;25.20;;;;;;;5.93;100.00;99368.69;103365;1291;22948;-57
2022/11/16 08:38:50;;;;;;;72.00;25.60;;;;;;;5.91;100.00;99365.77;103250;1271;22470;-59
2022/11/16 08:41:22;;;;;;;67.40;24.00;;;;;;;5.91;100.00;99365.55;103261;1302;24280;-57
2022/11/16 08:43:58;;;;;;;69.30;22.80;;;;;;;5.89;100.00;99371.82;103396;1303;25554;-59
2022/11/16 08:46:30;;;;;;;73.10;23.80;;;;;;;5.87;100.00;99376.89;103609;1277;22677;-58
2022/11/16 08:49:02;;;;;;;65.90;23.70;;;;;;;5.86;100.00;99376.29;103511;1303;22472;-58
2022/11/16 08:51:34;;;;;;;73.80;24.20;;;;;;;5.85;100.00;99379.18;103365;1278;22605;-58
2022/11/16 08:54:06;;;;;;;75.40;25.30;;;;;;;5.85;100.00;99386.48;103445;1271;22487;-58
2022/11/16 08:56:38;;;;;;;66.40;25.70;;;;;;;5.86;100.00;99385.73;103530;1272;23906;-58
2022/11/16 08:59:10;;;;;;;69.50;23.10;;;;;;;5.86;100.00;99384.59;103457;1278;22471;-58
2022/11/16 09:01:42;;;;;;;65.20;21.10;;;;;;;5.85;100.00;99381.48;103289;1293;22596;-57
2022/11/16 09:04:14;;;;;;;68.20;24.10;;;;;;;5.81;100.00;99385.51;103616;1279;25229;-59
2022/11/16 09:06:46;;;;;;;57.70;20.80;;;;;;;5.80;100.00;99384.26;103320;1303;22588;-58
2022/11/16 09:09:19;;;;;;;73.00;26.10;;;;;;;5.79;100.00;99390.79;103345;1278;25193;-58
2022/11/16 09:11:52;;;;;;;73.30;28.30;;;;;;;5.79;100.00;99392.94;103378;1279;22476;-58
2022/11/16 09:14:27;;;;;;;74.00;24.60;;;;;;;5.80;100.00;99393.41;103339;1278;22463;-58
2022/11/16 09:16:59;;;;;;;78.30;29.00;;;;;;;5.78;100.00;99398.11;103531;1300;22522;-58
2022/11/16 09:19:32;;;;;;;74.90;26.10;;;;;;;5.76;100.00;99399.69;103473;1271;22533;-58
2022/11/16 09:22:04;;;;;;;88.00;31.50;;;;;;;5.76;100.00;99395.96;103268;1277;25237;-59
2022/11/16 09:24:35;;;;;;;80.50;30.60;;;;;;;5.76;100.00;99399.38;103262;1277;22466;-58
2022/11/16 09:27:09;;;;;;;79.00;29.60;;;;;;;5.75;100.00;99400.58;103265;1299;24430;-58
2022/11/16 09:29:41;;;;;;;76.30;25.00;;;;;;;5.76;100.00;99404.20;103447;1278;22480;-58
2022/11/16 09:32:12;;;;;;;69.10;24.30;;;;;;;5.76;100.00;99401.73;103291;1280;22517;-57
2022/11/16 09:34:44;;;;;;;67.70;23.60;;;;;;;5.72;100.00;99404.67;103368;1278;23051;-57
2022/11/16 09:37:15;;;;;;;64.90;23.70;;;;;;;5.68;100.00;99403.77;103494;1278;25512;-59
2022/11/16 09:39:47;;;;;;;62.30;22.40;;;;;;;5.68;100.00;99402.88;103331;1278;24417;-58
2022/11/16 09:42:46;;;;;;;76.80;27.10;;;;;;;5.67;100.00;99395.23;103429;1279;22481;-57
2022/11/16 09:45:24;;;;;;;61.40;21.40;;;;;;;5.69;100.00;99391.80;103424;1296;22475;-58
2022/11/16 09:48:01;;;;;;;63.20;21.40;;;;;;;5.68;100.00;99387.77;103309;1278;25217;-59
2022/11/16 09:50:42;;;;;;;59.80;20.30;;;;;;;5.68;100.00;99386.45;103421;1279;22990;-58
2022/11/16 09:53:26;;;;;;;61.90;19.70;;;;;;;5.69;100.00;99387.64;103191;1280;22473;-59
2022/11/16 09:56:03;;;;;;;56.70;18.30;;;;;;;5.68;100.00;99385.98;103343;1301;22486;-57
2022/11/16 09:58:41;;;;;;;59.30;19.20;;;;;;;5.64;100.00;99391.52;103339;1281;22982;-58
2022/11/16 10:01:24;;;;;;;58.30;19.40;;;;;;;5.64;100.00;99388.06;103487;1278;22467;-59
2022/11/16 10:04:02;;;;;;;57.40;21.90;;;;;;;5.64;100.00;99383.63;103351;1279;22588;-58
2022/11/16 10:06:41;;;;;;;58.80;21.00;;;;;;;5.64;100.00;99376.37;103507;1278;22549;-59
2022/11/16 10:09:14;;;;;;;48.40;17.10;;;;;;;5.63;100.00;99375.69;103439;1278;22467;-56
2022/11/16 10:11:59;;;;;;;53.80;18.40;;;;;;;5.58;100.00;99372.58;103368;1279;25457;-56
2022/11/16 10:14:52;;;;;;;58.30;20.40;;;;;;;5.54;100.00;99370.15;103185;1278;22489;-54
2022/11/16 10:17:32;;;;;;;60.30;23.40;;;;;;;5.56;100.00;99364.55;103426;1274;25460;-58
2022/11/16 10:20:18;;;;;;;62.30;23.30;;;;;;;5.57;100.00;99357.90;103303;1288;22468;-58
2022/11/16 10:22:58;;;;;;;56.60;20.20;;;;;;;5.59;100.00;99355.02;103461;1295;22605;-58
2022/11/16 10:25:39;;;;;;;57.50;21.50;;;;;;;5.57;100.00;99348.27;103546;1277;22489;-57
2022/11/16 10:28:29;;;;;;;59.90;22.60;;;;;;;5.59;100.00;99340.12;103501;1288;26693;-56
2022/11/16 10:31:09;;;;;;;52.90;19.20;;;;;;;5.59;100.00;99334.95;103293;1278;22461;-56
2022/11/16 10:33:43;;;;;;;50.70;20.20;;;;;;;5.59;100.00;99332.42;103309;1278;22487;-55
2022/11/16 10:36:16;;;;;;;55.90;17.80;;;;;;;5.61;100.00;99328.29;103339;1279;25239;-58
2022/11/16 10:38:47;;;;;;;49.10;18.10;;;;;;;5.62;100.00;99330.31;103199;1277;24278;-58
2022/11/16 10:41:26;;;;;;;58.90;20.30;;;;;;;5.61;100.00;99334.46;103450;1283;22474;-57
2022/11/16 10:43:59;;;;;;;54.60;19.30;;;;;;;5.63;100.00;99336.73;103408;1278;24023;-57
2022/11/16 10:46:36;;;;;;;54.60;21.70;;;;;;;5.63;100.00;99332.55;103584;1271;22487;-56
2022/11/16 10:49:16;;;;;;;56.40;19.20;;;;;;;5.63;100.00;99332.86;103480;1279;22501;-59
2022/11/16 10:51:50;;;;;;;53.60;20.60;;;;;;;5.64;100.00;99332.38;103400;1286;22482;-59
2022/11/16 10:54:21;;;;;;;54.80;20.70;;;;;;;5.64;100.00;99328.46;103351;1279;22579;-59
2022/11/16 10:56:59;;;;;;;61.30;22.60;;;;;;;5.64;100.00;99321.57;103359;1295;23901;-57
2022/11/16 10:59:42;;;;;;;55.80;21.00;;;;;;;5.67;100.00;99322.97;103443;1279;22670;-58
2022/11/16 11:02:33;;;;;;;58.60;21.70;;;;;;;5.67;100.00;99328.79;103295;1272;24266;-57
2022/11/16 11:05:08;;;;;;;56.80;24.30;;;;;;;5.71;100.00;99334.25;103443;1278;23309;-58
2022/11/16 11:07:39;;;;;;;58.40;24.80;;;;;;;5.72;100.00;99330.86;103621;1300;25227;-58
2022/11/16 11:10:30;;;;;;;64.80;25.10;;;;;;;5.73;100.00;99325.69;103431;1279;24096;-58
2022/11/16 11:13:21;;;;;;;61.80;26.00;;;;;;;5.74;100.00;99320.70;103426;1277;22537;-56
2022/11/16 11:16:12;;;;;;;62.60;24.90;;;;;;;5.74;100.00;99321.50;103373;1285;25261;-56
2022/11/16 11:18:46;;;;;;;58.60;23.40;;;;;;;5.73;100.00;99320.15;103441;1279;22486;-58
2022/11/16 11:21:22;;;;;;;65.10;26.80;;;;;;;5.71;100.00;99319.42;103463;1278;24888;-57
2022/11/16 11:23:57;;;;;;;56.30;23.30;;;;;;;5.70;100.00;99314.81;103308;1278;22483;-59
2022/11/16 11:26:35;;;;;;;56.10;22.10;;;;;;;5.71;100.00;99312.34;103211;1275;22488;-58
2022/11/16 11:29:17;;;;;;;54.80;22.00;;;;;;;5.70;100.00;99314.51;103224;1303;25259;-58
2022/11/16 11:31:52;;;;;;;54.30;22.70;;;;;;;5.67;100.00;99317.71;103521;1303;24231;-58
2022/11/16 11:34:27;;;;;;;58.10;22.70;;;;;;;5.68;100.00;99314.61;103390;1277;22574;-61
2022/11/16 11:37:01;;;;;;;57.70;22.70;;;;;;;5.68;100.00;99312.78;103424;1283;22629;-58
2022/11/16 11:39:35;;;;;;;52.10;20.50;;;;;;;5.65;100.00;99315.70;103370;1278;22504;-56
2022/11/16 11:42:20;;;;;;;56.30;22.10;;;;;;;5.63;100.00;99319.48;103437;1278;22953;-58
2022/11/16 11:44:58;;;;;;;63.80;24.30;;;;;;;5.62;100.00;99319.55;103326;1277;22600;-57
2022/11/16 11:47:46;;;;;;;56.70;23.20;;;;;;;5.62;100.00;99315.27;103279;1271;24209;-58
2022/11/16 11:50:26;;;;;;;55.50;19.40;;;;;;;5.60;100.00;99313.10;103232;1277;22459;-59
2022/11/16 11:53:15;;;;;;;46.70;19.50;;;;;;;5.57;100.00;99314.98;103503;1271;22630;-59
2022/11/16 11:55:46;;;;;;;51.10;21.00;;;;;;;5.55;100.00;99313.55;103475;1278;22951;-57
2022/11/16 11:58:21;;;;;;;53.50;22.00;;;;;;;5.53;100.00;99306.23;103358;1271;22469;-56
2022/11/16 12:01:03;;;;;;;60.10;23.60;;;;;;;5.53;100.00;99303.93;103330;1278;22465;-60
2022/11/16 12:03:58;;;;;;;60.80;23.30;;;;;;;5.53;100.00;99299.84;103417;1278;23970;-57
2022/11/16 12:06:37;;;;;;;53.10;21.00;;;;;;;5.54;100.00;99295.13;103276;1274;23060;-58
2022/11/16 12:09:24;;;;;;;58.90;22.90;;;;;;;5.53;100.00;99292.52;103432;1278;22478;-57
2022/11/16 12:12:12;;;;;;;50.40;19.20;;;;;;;5.54;100.00;99287.60;103259;1288;23097;-57
2022/11/16 12:15:07;;;;;;;51.20;18.70;;;;;;;5.54;100.00;99295.50;103287;1287;22483;-56
2022/11/16 12:17:52;;;;;;;44.40;17.90;;;;;;;5.53;100.00;99294.36;103444;1278;24798;-57
2022/11/16 12:20:38;;;;;;;46.30;16.40;;;;;;;5.53;100.00;99288.77;103368;1279;25254;-56
2022/11/16 12:23:33;;;;;;;50.80;18.20;;;;;;;5.52;100.00;99283.02;103421;1279;22511;-58
2022/11/16 12:26:12;;;;;;;45.90;16.10;;;;;;;5.54;100.00;99281.27;103274;1299;24329;-57
2022/11/16 12:28:56;;;;;;;47.50;17.90;;;;;;;5.54;100.00;99284.73;103221;1293;24319;-58
2022/11/16 12:31:59;;;;;;;43.30;17.40;;;;;;;5.53;100.00;99283.70;103524;1270;24235;-58